Flight Track Log - Related Links

Times and Time Zones

All times are in EDT time to prevent confusion due to time zone crossing. See the DAL268 flight status page for this flight to view local times or setup timezone preferences in your user account.

Time Position Orientation Groundspeed Altitude Reporting Facility
EDT Latitude Longitude Course Direction KTS MPH feet Rate Location/Type
Sun 02:15:08 PM 37.6160 -122.3810 North  Level FlightAware ADS-B
Sun 02:17:00 PM 37.7868 -122.1965 38° Northeast  Level FlightAware Approximate
Sun 02:18:00 PM 37.8828 -122.1005 38° Northeast  Level FlightAware Approximate
Sun 02:19:00 PM 37.9788 -122.0045 38° Northeast  Level FlightAware Approximate
Sun 02:20:00 PM 38.0685 -121.9089 35° Northeast  Level FlightAware Approximate
Sun 02:21:00 PM 38.1669 -121.8165 38° Northeast  Level FlightAware Approximate
Sun 02:23:00 PM 37.7886 -122.1948 38° Northeast  Level FlightAware Approximate
Sun 02:26:00 PM 37.8190 -122.1644 38° Northeast  Level FlightAware Approximate
Sun 02:27:00 PM 37.9150 -122.0684 38° Northeast  Level FlightAware Approximate
Sun 02:29:00 PM 37.7982 -122.1852 38° Northeast  Level FlightAware Approximate
Sun 02:30:00 PM 37.8942 -122.0892 38° Northeast  Level FlightAware Approximate
Sun 02:33:00 PM 37.8621 -122.1212 38° Northeast  Level FlightAware Approximate
Sun 02:33:44 PM 37.6070 -122.3810 38° Northeast  Level FlightAware ADS-B
Sun 02:35:01 PM 37.6233 -122.3700 27° Northeast 161 185 279 Level FlightAware ADS-B
Sun 02:35:10 PM 37.6290 -122.3660 29° Northeast 161 185 400 2,769 Climbing FlightAware ADS-B
Sun 02:35:14 PM 37.6319 -122.3640 29° Northeast 163 188 600 2,571 Climbing FlightAware ADS-B
Sun 02:35:24 PM 37.6379 -122.3580 38° Northeast 170 196 1,000 2,143 Climbing FlightAware ADS-B
Sun 02:35:28 PM 37.6404 -122.3550 44° Northeast 176 203 1,100 1,600 Climbing FlightAware ADS-B
Sun 02:35:39 PM 37.6461 -122.3460 51° Northeast 187 215 1,400 1,500 Climbing FlightAware ADS-B
Sun 02:35:48 PM 37.6514 -122.3380 50° Northeast 199 229 1,600 1,200 Climbing FlightAware ADS-B
Sun 02:36:04 PM 37.6613 -122.3240 48° Northeast 223 257 1,900 1,500 Climbing FlightAware ADS-B
Sun 02:36:20 PM 37.6728 -122.3060 51° Northeast 243 280 2,400 2,063 Climbing FlightAware ADS-B
Sun 02:36:36 PM 37.6847 -122.2880 50° Northeast 259 298 3,000 2,438 Climbing FlightAware ADS-B
Sun 02:36:52 PM 37.6976 -122.2690 49° Northeast 269 310 3,700 2,727 Climbing FlightAware ADS-B
Sun 02:37:09 PM 37.7119 -122.2480 49° Northeast 276 318 4,500 2,571 Climbing FlightAware ADS-B
Sun 02:37:27 PM 37.7277 -122.2250 49° Northeast 293 337 5,200 2,667 Climbing FlightAware ADS-B
Sun 02:37:45 PM 37.7455 -122.2050 42° Northeast 293 337 6,100 2,909 Climbing FlightAware ADS-B
Sun 02:38:00 PM 37.7611 -122.1890 39° Northeast 298 343 6,800 2,909 Climbing FlightAware ADS-B
Sun 02:38:18 PM 37.7815 -122.1690 38° Northeast 304 350 7,700 2,909 Climbing FlightAware ADS-B
Sun 02:38:33 PM 37.7987 -122.1520 38° Northeast 309 356 8,400 2,813 Climbing FlightAware ADS-B
Sun 02:38:50 PM 37.8182 -122.1340 36° Northeast 313 360 9,200 2,880 Climbing FlightAware ADS-B
Sun 02:38:58 PM 37.8273 -122.1250 38° Northeast 315 362 9,600 2,769 Climbing FlightAware ADS-B
Sun 02:39:03 PM 37.8329 -122.1190 40° Northeast 319 367 9,800 3,000 Climbing FlightAware ADS-B
Sun 02:39:06 PM 37.8359 -122.1150 46° Northeast 321 369 10,000 3,000 Climbing FlightAware ADS-B
Sun 02:39:11 PM 37.8405 -122.1070 54° Northeast 326 375 10,200 1,846 Climbing FlightAware ADS-B
Sun 02:39:19 PM 37.8463 -122.0930 62° Northeast 337 388 10,400 1,231 Climbing FlightAware ADS-B
Sun 02:39:50 PM 37.8595 -122.0330 74° East 369 425 11,000 1,279 Climbing FlightAware ADS-B
Sun 02:40:20 PM 37.8726 -121.9670 76° East 398 458 11,700 1,636 Climbing FlightAware ADS-B
Sun 02:40:56 PM 37.8894 -121.8830 76° East 410 472 12,800 1,867 Climbing FlightAware ADS-B
Sun 02:41:05 PM 37.8957 -121.8620 69° East 419 482 13,100 2,276 Climbing FlightAware ADS-B
Sun 02:41:25 PM 37.9154 -121.8190 60° Northeast 421 484 13,900 2,353 Climbing FlightAware ADS-B
Sun 02:41:56 PM 37.9465 -121.7550 58° Northeast 428 493 15,100 2,262 Climbing FlightAware ADS-B
Sun 02:42:26 PM 37.9774 -121.6890 59° Northeast 434 499 16,200 2,066 Climbing FlightAware ADS-B
Sun 02:42:57 PM 38.0096 -121.6220 59° Northeast 441 507 17,200 1,869 Climbing FlightAware ADS-B
Sun 02:43:27 PM 38.0420 -121.5530 59° Northeast 449 517 18,100 1,770 Climbing FlightAware ADS-B
Sun 02:43:58 PM 38.0747 -121.4820 60° Northeast 456 525 19,000 1,619 Climbing FlightAware ADS-B
Sun 02:44:30 PM 38.1088 -121.4090 59° Northeast 463 533 19,800 1,548 Climbing FlightAware ADS-B
Sun 02:45:00 PM 38.1422 -121.3380 59° Northeast 469 540 20,600 1,714 Climbing FlightAware ADS-B
Sun 02:45:33 PM 38.1794 -121.2580 59° Northeast 472 543 21,600 1,662 Climbing FlightAware ADS-B
Sun 02:46:05 PM 38.2152 -121.1850 58° Northeast 476 548 22,400 1,452 Climbing FlightAware ADS-B
Sun 02:46:35 PM 38.2512 -121.1100 59° Northeast 481 554 23,100 1,477 Climbing FlightAware ADS-B
Sun 02:47:10 PM 38.2920 -121.0260 58° Northeast 486 559 24,000 1,478 Climbing FlightAware ADS-B
Sun 02:47:44 PM 38.3320 -120.9420 59° Northeast 490 564 24,800 1,250 Climbing FlightAware ADS-B
Sun 02:48:22 PM 38.3750 -120.8500 59° Northeast 496 571 25,500 1,200 Climbing FlightAware ADS-B
Sun 02:48:54 PM 38.4140 -120.7690 58° Northeast 502 578 26,200 1,304 Climbing FlightAware ADS-B
Sun 02:49:31 PM 38.4590 -120.6740 59° Northeast 506 582 27,000 1,200 Climbing FlightAware ADS-B
Sun 02:50:04 PM 38.4980 -120.5920 59° Northeast 512 589 27,600 1,180 Climbing FlightAware ADS-B
Sun 02:50:32 PM 38.5336 -120.5158 59° Northeast 514 592 28,200 1,479 Climbing FlightAware ADS-B
Sun 02:51:17 PM 38.5883 -120.3995 59° Northeast 508 585 29,400 1,558 Climbing FlightAware ADS-B
Sun 02:51:49 PM 38.6260 -120.3200 59° Northeast 504 580 30,200 1,588 Climbing FlightAware ADS-B
Sun 02:51:51 PM 38.6287 -120.3132 63° Northeast 504 580 30,300 1,455 Climbing FlightAware ADS-B
Sun 02:52:22 PM 38.6658 -120.2339 59° Northeast 504 580 31,000 689 Climbing FlightAware ADS-B
Sun 02:52:52 PM 38.7010 -120.1586 59° Northeast 506 582 31,000  Level FlightAware ADS-B
Sun 02:53:29 PM 38.7436 -120.0671 59° Northeast 500 575 31,000  Level FlightAware ADS-B
Sun 02:54:01 PM 38.7827 -119.9828 59° Northeast 495 570 31,000  Level FlightAware ADS-B
Sun 02:54:42 PM 38.8313 -119.8777 59° Northeast 498 573 31,000  Level FlightAware ADS-B
Sun 02:55:21 PM 38.8705 -119.7927 59° Northeast 500 575 31,000  Level FlightAware ADS-B
Sun 02:55:54 PM 38.9159 -119.6941 59° Northeast 500 575 31,000  Level FlightAware ADS-B
Sun 02:56:24 PM 38.9485 -119.6229 59° Northeast 501 577 31,000  Level FlightAware ADS-B
Sun 02:57:10 PM 39.0040 -119.5017 59° Northeast 501 577 31,000  Level FlightAware ADS-B
Sun 02:57:41 PM 39.0408 -119.4210 60° Northeast 504 580 31,000  Level FlightAware ADS-B
Sun 02:58:26 PM 39.0924 -119.3074 60° Northeast 506 582 31,000  Level FlightAware ADS-B
Sun 02:58:56 PM 39.1282 -119.2283 60° Northeast 509 586 31,000  Level FlightAware ADS-B
Sun 02:59:26 PM 39.1637 -119.1495 60° Northeast 506 582 31,000  Level FlightAware ADS-B
Sun 03:00:04 PM 39.2091 -119.0489 60° Northeast 510 587 31,000  Level FlightAware ADS-B
Sun 03:00:34 PM 39.2436 -118.9720 60° Northeast 509 586 31,000  Level FlightAware ADS-B
Sun 03:01:06 PM 39.2818 -118.8868 60° Northeast 513 590 31,000  Level FlightAware ADS-B
Sun 03:01:55 PM 39.3395 -118.7576 60° Northeast 516 594 31,000  Level FlightAware ADS-B
Sun 03:02:30 PM 39.3815 -118.6633 60° Northeast 516 594 31,000  Level FlightAware ADS-B
Sun 03:03:00 PM 39.4169 -118.5838 60° Northeast 518 596 31,000  Level FlightAware ADS-B
Sun 03:03:39 PM 39.4640 -118.4770 60° Northeast 517 595 31,000  Level FlightAware ADS-B
Sun 03:04:10 PM 39.4990 -118.3970 60° Northeast 518 596 31,000  Level FlightAware ADS-B
Sun 03:04:46 PM 39.5420 -118.3000 60° Northeast 518 596 31,000  Level FlightAware ADS-B
Sun 03:05:22 PM 39.5860 -118.2000 60° Northeast 517 595 31,000  Level FlightAware ADS-B
Sun 03:05:56 PM 39.6260 -118.1080 61° Northeast 519 597 31,000  Level FlightAware ADS-B
Sun 03:06:29 PM 39.6640 -118.0210 60° Northeast 517 595 31,000  Level FlightAware ADS-B
Sun 03:07:05 PM 39.7050 -117.9260 61° Northeast 517 595 31,000  Level FlightAware ADS-B
Sun 03:07:40 PM 39.7480 -117.8270 61° Northeast 520 598 31,000  Level FlightAware ADS-B
Sun 03:08:33 PM 39.8010 -117.7060 60° Northeast 517 595 31,000  Level FlightAware ADS-B
Sun 03:09:09 PM 39.8380 -117.6230 60° Northeast 517 595 31,000  Level FlightAware ADS-B
Sun 03:09:45 PM 39.8740 -117.5410 60° Northeast 517 595 31,000  Level FlightAware ADS-B
Sun 03:10:20 PM 39.9100 -117.4600 60° Northeast 517 595 31,000  Level FlightAware ADS-B
Sun 03:10:58 PM 39.9490 -117.3730 60° Northeast 517 595 31,000  Level FlightAware ADS-B
Sun 03:11:38 PM 39.9890 -117.2810 60° Northeast 517 595 31,000  Level FlightAware ADS-B
Sun 03:12:14 PM 40.0260 -117.1980 60° Northeast 517 595 31,000  Level FlightAware ADS-B
Sun 03:12:50 PM 40.0620 -117.1160 60° Northeast 517 595 31,000  Level FlightAware ADS-B
Sun 03:13:26 PM 40.0990 -117.0330 60° Northeast 517 595 31,000  Level FlightAware ADS-B
Sun 03:14:02 PM 40.1360 -116.9500 60° Northeast 517 595 31,000  Level FlightAware ADS-B
Sun 03:14:38 PM 40.1720 -116.8670 60° Northeast 517 595 31,000  Level FlightAware ADS-B
Sun 03:15:14 PM 40.2090 -116.7840 60° Northeast 517 595 31,000  Level FlightAware ADS-B
Sun 03:15:51 PM 40.2460 -116.6990 60° Northeast 517 595 31,000  Level FlightAware ADS-B
Sun 03:16:25 PM 40.2810 -116.6200 60° Northeast 517 595 31,000  Level FlightAware ADS-B
Sun 03:17:01 PM 40.3170 -116.5370 60° Northeast 517 595 31,000  Level FlightAware ADS-B
Sun 03:17:38 PM 40.3550 -116.4520 60° Northeast 517 595 31,000  Level FlightAware ADS-B
Sun 03:20:17 PM 40.6253 -115.7280 64° Northeast 527 606 31,000  Level FlightAware ADS-B
Sun 03:20:48 PM 40.6598 -115.6420 62° Northeast 526 605 31,000  Level FlightAware ADS-B
Sun 03:21:18 PM 40.6944 -115.5560 62° Northeast 529 609 31,000  Level FlightAware ADS-B
Sun 03:21:52 PM 40.7327 -115.4600 62° Northeast 527 606 31,000  Level FlightAware ADS-B
Sun 03:22:22 PM 40.7669 -115.3750 62° Northeast 528 608 31,000  Level FlightAware ADS-B
Sun 03:23:06 PM 40.8173 -115.2480 62° Northeast 530 610 31,000  Level FlightAware ADS-B
Sun 03:23:36 PM 40.8514 -115.1620 62° Northeast 529 609 31,000  Level FlightAware ADS-B
Sun 03:23:42 PM 40.8574 -115.1469 62° Northeast 529 609 31,000  Level FlightAware ADS-B
Sun 03:24:24 PM 40.9060 -115.0240 62° Northeast 529 609 31,000  Level FlightAware ADS-B
Sun 03:24:55 PM 40.9410 -114.9350 62° Northeast 536 617 31,000  Level FlightAware ADS-B
Sun 03:25:25 PM 40.9754 -114.8470 63° Northeast 541 623 31,000  Level FlightAware ADS-B
Sun 03:25:56 PM 41.0099 -114.7590 63° Northeast 534 615 31,000 98 Level FlightAware ADS-B
Sun 03:26:26 PM 41.0438 -114.6720 63° Northeast 533 613 31,100  Climbing FlightAware ADS-B
Sun 03:26:56 PM 41.0783 -114.5830 63° Northeast 539 620 31,000 -95 Descending FlightAware ADS-B
Sun 03:27:29 PM 41.1153 -114.4880 63° Northeast 536 617 31,000  Level FlightAware ADS-B
Sun 03:28:00 PM 41.1500 -114.3980 63° Northeast 536 617 31,000  Level FlightAware ADS-B
Sun 03:28:44 PM 41.1997 -114.2690 63° Northeast 538 619 31,000  Level FlightAware ADS-B
Sun 03:29:14 PM 41.2337 -114.1800 63° Northeast 535 616 31,000  Level FlightAware ADS-B
Sun 03:29:44 PM 41.2678 -114.0910 63° Northeast 537 618 31,000  Level FlightAware ADS-B
Sun 03:30:15 PM 41.3019 -114.0020 63° Northeast 537 618 31,000  Level FlightAware ADS-B
Sun 03:30:45 PM 41.3355 -113.9130 63° Northeast 537 618 31,000  Level FlightAware ADS-B
Sun 03:31:01 PM 41.3518 -113.8640 66° East 542 624 31,000  Level FlightAware ADS-B
Sun 03:31:12 PM 41.3612 -113.8300 70° East 544 626 31,000  Level FlightAware ADS-B
Sun 03:31:23 PM 41.3692 -113.7950 73° East 548 631 31,000  Level FlightAware ADS-B
Sun 03:31:42 PM 41.3789 -113.7322 78° East 551 634 31,000  Level FlightAware ADS-B
Sun 03:31:54 PM 41.3843 -113.6920 80° East 551 634 31,000  Level FlightAware ADS-B
Sun 03:32:14 PM 41.3916 -113.6315 81° East 551 634 31,000  Level FlightAware ADS-B
Sun 03:32:25 PM 41.3967 -113.5890 81° East 552 635 31,000  Level FlightAware ADS-B
Sun 03:32:46 PM 41.4046 -113.5218 81° East 552 635 31,000  Level FlightAware ADS-B
Sun 03:32:55 PM 41.4087 -113.4880 81° East 552 635 31,000  Level FlightAware ADS-B
Sun 03:33:16 PM 41.4169 -113.4193 81° East 552 635 31,000  Level FlightAware ADS-B
Sun 03:33:39 PM 41.4265 -113.3400 81° East 552 635 31,000  Level FlightAware ADS-B
Sun 03:33:50 PM 41.4311 -113.3027 81° East 552 635 31,000  Level FlightAware ADS-B
Sun 03:34:12 PM 41.4399 -113.2310 81° East 551 634 31,000  Level FlightAware ADS-B
Sun 03:34:20 PM 41.4430 -113.2060 80° East 551 634 31,000  Level FlightAware ADS-B
Sun 03:34:44 PM 41.4533 -113.1230 81° East 551 634 31,000  Level FlightAware ADS-B
Sun 03:34:54 PM 41.4575 -113.0896 80° East 551 634 31,000  Level FlightAware ADS-B
Sun 03:35:34 PM 41.4741 -112.9560 81° East 552 635 31,000  Level FlightAware ADS-B
Sun 03:35:59 PM 41.4837 -112.8778 81° East 551 634 31,000  Level FlightAware ADS-B
Sun 03:36:30 PM 41.4973 -112.7670 81° East 550 633 31,000  Level FlightAware ADS-B
Sun 03:37:03 PM 41.5105 -112.6580 81° East 549 632 31,000  Level FlightAware ADS-B
Sun 03:37:04 PM 41.5107 -112.6567 77° East 549 632 31,000  Level FlightAware ADS-B
Sun 03:37:36 PM 41.5237 -112.5490 81° East 549 632 31,000  Level FlightAware ADS-B
Sun 03:37:37 PM 41.5243 -112.5439 82° East 549 632 31,000  Level FlightAware ADS-B
Sun 03:38:09 PM 41.5367 -112.4370 81° East 548 631 31,000  Level FlightAware ADS-B
Sun 03:38:16 PM 41.5385 -112.4205 82° East 548 631 31,000  Level FlightAware ADS-B
Sun 03:38:47 PM 41.5496 -112.3153 82° East 548 631 31,000  Level FlightAware ADS-B
Sun 03:39:05 PM 41.5561 -112.2520 82° East 548 631 31,000  Level FlightAware ADS-B
Sun 03:39:24 PM 41.5624 -112.1903 82° East 548 631 31,000  Level FlightAware ADS-B
Sun 03:39:40 PM 41.5680 -112.1350 82° East 548 631 31,000  Level FlightAware ADS-B
Sun 03:39:57 PM 41.5737 -112.0803 82° East 548 631 31,000  Level FlightAware ADS-B
Sun 03:40:14 PM 41.5797 -112.0210 82° East 549 632 31,000  Level FlightAware ADS-B
Sun 03:40:44 PM 41.5899 -111.9200 82° East 548 631 31,000  Level FlightAware ADS-B
Sun 03:40:47 PM 41.5909 -111.9103 82° East 547 629 31,000  Level FlightAware ADS-B
Sun 03:41:17 PM 41.6013 -111.8090 82° East 550 633 31,000  Level FlightAware ADS-B
Sun 03:41:52 PM 41.6130 -111.6920 82° East 555 639 31,000 91 Level FlightAware ADS-B
Sun 03:42:23 PM 41.6233 -111.5890 82° East 547 629 31,100  Climbing FlightAware ADS-B
Sun 03:42:55 PM 41.6341 -111.4800 82° East 549 632 31,000 -95 Descending FlightAware ADS-B
Sun 03:43:26 PM 41.6442 -111.3760 83° East 545 627 31,000  Level FlightAware ADS-B
Sun 03:43:57 PM 41.6541 -111.2730 83° East 545 627 31,000 -98 Level FlightAware ADS-B
Sun 03:44:27 PM 41.6638 -111.1720 83° East 546 628 30,900  Descending FlightAware ADS-B
Sun 03:45:07 PM 41.6762 -111.0410 83° East 543 625 31,000 152 Climbing FlightAware ADS-B
Sun 03:45:46 PM 41.6860 -110.9680 80° East 545 627 31,100 80 Climbing FlightAware ADS-B
Sun 03:46:22 PM 41.6970 -110.8660 82° East 545 627 31,100  Level FlightAware ADS-B
Sun 03:46:59 PM 41.7080 -110.7610 82° East 545 627 31,100  Level FlightAware ADS-B
Sun 03:47:35 PM 41.7190 -110.6590 82° East 545 627 31,100  Level FlightAware ADS-B
Sun 03:48:12 PM 41.7300 -110.5530 82° East 545 627 31,100  Level FlightAware ADS-B
Sun 03:48:48 PM 41.7400 -110.4510 82° East 545 627 31,100  Level FlightAware ADS-B
Sun 03:49:24 PM 41.7510 -110.3490 82° East 545 627 31,100  Level FlightAware ADS-B
Sun 03:50:00 PM 41.7620 -110.2460 82° East 545 627 31,100  Level FlightAware ADS-B
Sun 03:50:36 PM 41.7730 -110.1440 82° East 545 627 31,100  Level FlightAware ADS-B
Sun 03:51:13 PM 41.7840 -110.0380 82° East 545 627 31,100  Level FlightAware ADS-B
Sun 03:51:48 PM 41.7940 -109.9390 82° East 545 627 31,100  Level FlightAware ADS-B
Sun 03:52:24 PM 41.8050 -109.8360 82° East 545 627 31,100  Level FlightAware ADS-B
Sun 03:53:00 PM 41.8150 -109.7340 82° East 545 627 31,100  Level FlightAware ADS-B
Sun 03:53:36 PM 41.8260 -109.6310 82° East 545 627 31,100 -2,211 Level FlightAware ADS-B
Sun 03:54:35 PM 41.8342 -109.2039 82° East 546 628 27,600 -2,033 Descending Denver Center
Sun 03:55:37 PM 41.8539 -108.9483 84° East 536 617 27,000 -290 Descending Denver Center
Sun 03:56:39 PM 41.8678 -108.7594 84° East 530 610 27,000  Level Denver Center
Sun 03:57:41 PM 41.8842 -108.5358 84° East 537 618 27,000  Level Denver Center
Sun 03:58:43 PM 41.8975 -108.3433 85° East 539 620 27,000  Level Denver Center
Sun 03:59:45 PM 41.9131 -108.1203 85° East 536 617 27,000  Level Denver Center
Sun 04:00:47 PM 41.9253 -107.9283 85° East 540 621 27,000  Level Denver Center
Sun 04:01:49 PM 41.9378 -107.7375 85° East 537 618 27,000  Level Denver Center
Sun 04:02:52 PM 41.9525 -107.5150 85° East 536 617 27,000  Level Denver Center
Sun 04:03:54 PM 41.9636 -107.3247 85° East 536 617 27,000  Level Denver Center
Sun 04:10:05 PM 42.0330 -106.0780 85° East 523 602 27,000  Level FlightAware ADS-B
Sun 04:10:42 PM 42.0380 -105.9760 86° East 523 602 27,000  Level FlightAware ADS-B
Sun 04:11:28 PM 42.0450 -105.8200 86° East 529 609 27,000  Level FlightAware ADS-B
Sun 04:12:02 PM 42.0510 -105.6950 86° East 528 608 27,000  Level FlightAware ADS-B
Sun 04:12:39 PM 42.0570 -105.5750 86° East 531 611 27,000  Level FlightAware ADS-B
Sun 04:13:12 PM 42.0620 -105.4670 86° East 529 609 27,000  Level FlightAware ADS-B
Sun 04:13:49 PM 42.0670 -105.3440 87° East 528 608 27,000  Level FlightAware ADS-B
Sun 04:14:21 PM 42.0710 -105.2400 87° East 532 612 27,000  Level FlightAware ADS-B
Sun 04:14:58 PM 42.0790 -105.1200 85° East 526 605 27,000  Level FlightAware ADS-B
Sun 04:15:31 PM 42.0880 -105.0120 84° East 524 603 27,000 87 Level FlightAware ADS-B
Sun 04:16:07 PM 42.0980 -104.8940 83° East 531 611 27,100  Climbing FlightAware ADS-B
Sun 04:16:44 PM 42.1090 -104.7740 83° East 532 612 27,000 -83 Descending FlightAware ADS-B
Sun 04:17:19 PM 42.1190 -104.6600 83° East 525 604 27,000  Level FlightAware ADS-B
Sun 04:17:50 PM 42.1270 -104.5640 84° East 523 602 27,000  Level FlightAware ADS-B
Sun 04:18:28 PM 42.1380 -104.4340 83° East 524 603 27,000  Level FlightAware ADS-B
Sun 04:19:03 PM 42.1470 -104.3220 84° East 523 602 27,000  Level FlightAware ADS-B
Sun 04:19:37 PM 42.1560 -104.2130 84° East 523 602 27,000  Level FlightAware ADS-B
Sun 04:20:12 PM 42.1650 -104.1020 84° East 528 608 27,000  Level FlightAware ADS-B
Sun 04:20:49 PM 42.1750 -103.9780 84° East 536 617 27,000  Level FlightAware ADS-B
Sun 04:21:22 PM 42.1840 -103.8680 84° East 537 618 27,000  Level FlightAware ADS-B
Sun 04:22:01 PM 42.1930 -103.7510 84° East 537 618 27,000  Level FlightAware ADS-B
Sun 04:22:37 PM 42.2010 -103.6490 84° East 537 618 27,000  Level FlightAware ADS-B
Sun 04:23:13 PM 42.2090 -103.5470 84° East 537 618 27,000  Level FlightAware ADS-B
Sun 04:23:51 PM 42.2170 -103.4390 84° East 537 618 27,000  Level FlightAware ADS-B
Sun 04:24:27 PM 42.2250 -103.3370 84° East 537 618 27,000  Level FlightAware ADS-B
Sun 04:25:04 PM 42.2330 -103.2320 84° East 537 618 27,000 3,171 Level FlightAware ADS-B
Sun 04:25:37 PM 42.2442 -103.0439 84° East 530 610 30,700 3,221 Climbing Denver Center
Sun 04:26:39 PM 42.2575 -102.8558 84° East 527 606 32,100 1,645 Climbing Denver Center
Sun 04:27:41 PM 42.2739 -102.6375 84° East 528 608 34,100 1,403 Climbing Denver Center
Sun 04:28:43 PM 42.2844 -102.4544 85° East 517 595 35,000 435 Climbing Denver Center
Sun 04:29:45 PM 42.3000 -102.2386 84° East 519 597 35,000  Level Denver Center
Sun 04:30:47 PM 42.3122 -102.0533 85° East 518 596 35,000 290 Level Denver Center
Sun 04:31:49 PM 42.3250 -101.8303 85° East 522 601 35,600 968 Climbing Denver Center
Sun 04:32:51 PM 42.3364 -101.6478 85° East 511 588 37,000 677 Climbing Denver Center
Sun 04:33:53 PM 42.3478 -101.4414 86° East 494 568 37,000  Level Denver Center
Sun 04:34:55 PM 42.3581 -101.2628 85° East 497 572 37,000  Level Denver Center
Sun 04:35:58 PM 42.3667 -101.0808 86° East 504 580 37,000  Level Denver Center
Sun 04:37:00 PM 42.3781 -100.8694 86° East 505 581 37,000  Level Denver Center
Sun 04:38:02 PM 42.3883 -100.6850 86° East 510 587 37,000  Level Denver Center
Sun 04:39:04 PM 42.3981 -100.4708 86° East 511 588 37,000  Level Denver Center
Sun 04:40:06 PM 42.4067 -100.2917 86° East 504 580 37,000  Level Denver Center
Sun 04:41:08 PM 42.4167 -100.0817 86° East 501 577 37,000  Level Denver Center
Sun 04:42:10 PM 42.4244 -99.9025 87° East 498 573 37,000  Level Denver Center
Sun 04:43:12 PM 42.4322 -99.7142 87° East 496 571 37,000  Level Denver Center
Sun 04:43:46 PM 42.4372 -99.6033 86° East 495 570 37,000  Level Minneapolis Center
Sun 04:44:48 PM 42.4447 -99.4153 87° East 497 572 37,000  Level Minneapolis Center
Sun 04:45:50 PM 42.4522 -99.2258 87° East 500 575 37,000  Level Minneapolis Center
Sun 04:46:52 PM 42.4586 -99.0408 87° East 496 571 37,000  Level Minneapolis Center
Sun 04:47:54 PM 42.4667 -98.8150 87° East 498 573 37,000  Level Minneapolis Center
Sun 04:48:56 PM 42.4742 -98.6281 87° East 496 571 37,000  Level Minneapolis Center
Sun 04:55:00 PM 42.5240 -97.5210 87° East 37,000  Level FlightAware ADS-B
Sun 04:55:35 PM 42.5290 -97.4040 87° East 482 555 37,000  Level FlightAware ADS-B
Sun 04:56:10 PM 42.5330 -97.2990 87° East 481 554 37,000  Level FlightAware ADS-B
Sun 04:56:46 PM 42.5370 -97.2050 87° East 481 554 37,000  Level FlightAware ADS-B
Sun 04:57:20 PM 42.5410 -97.0830 87° East 480 552 37,000  Level FlightAware ADS-B
Sun 04:57:56 PM 42.5450 -96.9760 87° East 481 554 37,000  Level FlightAware ADS-B
Sun 04:58:26 PM 42.5490 -96.8870 86° East 481 554 37,000  Level FlightAware ADS-B
Sun 04:59:00 PM 42.5520 -96.7840 88° East 482 555 37,000  Level FlightAware ADS-B
Sun 04:59:40 PM 42.5560 -96.6660 87° East 482 555 37,000  Level FlightAware ADS-B
Sun 05:00:16 PM 42.5600 -96.5540 87° East 484 557 37,000  Level FlightAware ADS-B
Sun 05:00:49 PM 42.5630 -96.4560 88° East 484 557 37,000  Level FlightAware ADS-B
Sun 05:01:25 PM 42.5660 -96.3480 88° East 484 557 37,000  Level FlightAware ADS-B
Sun 05:02:02 PM 42.5700 -96.2350 87° East 485 558 37,000  Level FlightAware ADS-B
Sun 05:02:33 PM 42.5730 -96.1440 87° East 485 558 37,000  Level FlightAware ADS-B
Sun 05:03:10 PM 42.5760 -96.0300 88° East 485 558 37,000  Level FlightAware ADS-B
Sun 05:03:47 PM 42.5790 -95.9170 88° East 486 559 37,000  Level FlightAware ADS-B
Sun 05:04:19 PM 42.5810 -95.8190 88° East 485 558 37,000  Level FlightAware ADS-B
Sun 05:04:56 PM 42.5840 -95.7050 88° East 487 560 37,000  Level FlightAware ADS-B
Sun 05:05:28 PM 42.5870 -95.6070 88° East 487 560 37,000  Level FlightAware ADS-B
Sun 05:06:02 PM 42.5890 -95.5030 88° East 488 562 37,000  Level FlightAware ADS-B
Sun 05:06:34 PM 42.5916 -95.4057 88° East 488 562 37,000  Level FlightAware ADS-B (LPVM)
Sun 05:07:13 PM 42.5941 -95.2884 88° East 487 560 37,000  Level FlightAware ADS-B (LPVM)
Sun 05:07:49 PM 42.5960 -95.1810 89° East 487 560 37,000  Level FlightAware ADS-B
Sun 05:08:00 PM 42.5971 -95.1449 88° East 487 560 37,000  Level FlightAware ADS-B (LPVM)
Sun 05:08:33 PM 42.5991 -95.0449 88° East 487 560 37,000  Level FlightAware ADS-B (LPVM)
Sun 05:09:14 PM 42.6015 -94.9191 88° East 487 560 37,000  Level FlightAware ADS-B (LPVM)
Sun 05:10:01 PM 42.6040 -94.7767 89° East 487 560 37,000  Level FlightAware ADS-B (LPVM)
Sun 05:10:45 PM 42.6060 -94.6420 89° East 488 562 37,000  Level FlightAware ADS-B
Sun 05:10:52 PM 42.6065 -94.6187 88° East 488 562 37,000  Level FlightAware ADS-B (LPVM)
Sun 05:11:22 PM 42.6079 -94.5283 89° East 488 562 37,000  Level FlightAware ADS-B (LPVM)
Sun 05:11:59 PM 42.6100 -94.4170 88° East 488 562 37,000  Level FlightAware ADS-B
Sun 05:12:33 PM 42.6108 -94.3246 89° East 488 562 37,000  Level FlightAware ADS-B (LPVM)
Sun 05:13:12 PM 42.6120 -94.1920 89° East 488 562 37,000  Level FlightAware ADS-B
Sun 05:13:32 PM 42.6127 -94.1300 89° East 488 562 37,000  Level FlightAware ADS-B (LPVM)
Sun 05:14:11 PM 42.6135 -94.0112 89° East 487 560 37,000  Level FlightAware ADS-B (LPVM)
Sun 05:14:58 PM 42.6140 -93.8700 90° East 487 560 37,000  Level FlightAware ADS-B
Sun 05:15:20 PM 42.6149 -93.8001 89° East 486 559 37,000  Level FlightAware ADS-B (LPVM)
Sun 05:16:04 PM 42.6160 -93.6670 89° East 486 559 37,000  Level FlightAware ADS-B
Sun 05:16:44 PM 42.6160 -93.5500 90° East 486 559 37,000  Level FlightAware ADS-B
Sun 05:17:16 PM 42.6160 -93.4520 90° East 486 559 37,000  Level FlightAware ADS-B
Sun 05:17:53 PM 42.6170 -93.3380 89° East 486 559 37,000  Level FlightAware ADS-B
Sun 05:18:28 PM 42.6170 -93.2310 90° East 487 560 37,000  Level FlightAware ADS-B
Sun 05:19:05 PM 42.6170 -93.1210 90° East 486 559 37,000  Level FlightAware ADS-B
Sun 05:19:34 PM 42.6170 -93.0370 90° East 486 559 37,000  Level FlightAware ADS-B
Sun 05:20:12 PM 42.6160 -92.9220 91° East 485 558 37,000  Level FlightAware ADS-B
Sun 05:20:25 PM 42.6163 -92.8747 89° East 485 558 37,000  Level FlightAware ADS-B (LPVM)
Sun 05:21:21 PM 42.6157 -92.7044 90° East 483 556 37,000  Level FlightAware ADS-B (LPVM)
Sun 05:22:04 PM 42.6152 -92.5756 90° East 483 556 37,000  Level FlightAware ADS-B (LPVM)
Sun 05:22:34 PM 42.6146 -92.4846 90° East 483 556 37,000  Level FlightAware ADS-B (LPVM)
Sun 05:23:08 PM 42.6140 -92.3804 90° East 482 555 37,000  Level FlightAware ADS-B (LPVM)
Sun 05:23:41 PM 42.6130 -92.2880 91° East 482 555 37,000  Level FlightAware ADS-B
Sun 05:23:48 PM 42.6131 -92.2628 90° East 482 555 37,000  Level FlightAware ADS-B (LPVM)
Sun 05:24:49 PM 42.6115 -92.0783 91° East 482 555 37,000  Level FlightAware ADS-B (LPVM)
Sun 05:25:23 PM 42.6105 -91.9734 91° East 482 555 37,000  Level FlightAware ADS-B (LPVM)
Sun 05:25:53 PM 42.6097 -91.9065 91° East 482 555 37,000  Level FlightAware ADS-B (LPVM)
Sun 05:26:23 PM 42.6085 -91.7931 91° East 482 555 37,000  Level FlightAware ADS-B (LPVM)
Sun 05:27:04 PM 42.6070 -91.6791 91° East 482 555 37,000  Level FlightAware ADS-B (LPVM)
Sun 05:27:44 PM 42.6053 -91.5489 91° East 483 556 37,000  Level FlightAware ADS-B (LPVM)
Sun 05:28:24 PM 42.6035 -91.4342 91° East 483 556 37,000  Level FlightAware ADS-B (LPVM)
Sun 05:28:58 PM 42.6020 -91.3280 91° East 483 556 37,000  Level FlightAware ADS-B
Sun 05:29:24 PM 42.6005 -91.2459 91° East 483 556 37,000  Level FlightAware ADS-B (LPVM)
Sun 05:29:54 PM 42.5992 -91.1652 91° East 483 556 37,000  Level FlightAware ADS-B (LPVM)
Sun 05:30:24 PM 42.5979 -91.0929 91° East 483 556 37,000  Level FlightAware ADS-B (LPVM)
Sun 05:30:57 PM 42.5956 -90.9718 91° East 483 556 37,000  Level FlightAware ADS-B (LPVM)
Sun 05:31:54 PM 42.5920 -90.7970 92° East 483 556 37,000  Level FlightAware ADS-B
Sun 05:32:22 PM 42.5903 -90.7084 91° East 483 556 37,000  Level FlightAware ADS-B (LPVM)
Sun 05:33:03 PM 42.5880 -90.5890 91° East 483 556 37,000  Level FlightAware ADS-B
Sun 05:33:14 PM 42.5868 -90.5514 92° East 483 556 37,000  Level FlightAware ADS-B (LPVM)
Sun 05:34:15 PM 42.5820 -90.3700 92° East 483 556 37,000  Level FlightAware ADS-B
Sun 05:34:47 PM 42.5800 -90.2730 92° East 483 556 37,000  Level FlightAware ADS-B
Sun 05:35:22 PM 42.5780 -90.1760 92° East 483 556 37,000  Level FlightAware ADS-B
Sun 05:35:57 PM 42.5750 -90.0600 92° East 483 556 37,000  Level FlightAware ADS-B
Sun 05:36:30 PM 42.5720 -89.9610 92° East 483 556 37,000  Level FlightAware ADS-B
Sun 05:37:06 PM 42.5690 -89.8530 92° East 483 556 37,000  Level FlightAware ADS-B
Sun 05:37:43 PM 42.5650 -89.7400 93° East 483 556 37,000  Level FlightAware ADS-B
Sun 05:38:20 PM 42.5620 -89.6270 92° East 483 556 37,000  Level FlightAware ADS-B
Sun 05:38:56 PM 42.5590 -89.5200 92° East 482 555 37,000  Level FlightAware ADS-B
Sun 05:39:29 PM 42.5550 -89.4200 93° East 482 555 37,000  Level FlightAware ADS-B
Sun 05:40:04 PM 42.5520 -89.3160 92° East 482 555 37,000  Level FlightAware ADS-B
Sun 05:40:39 PM 42.5480 -89.2110 93° East 481 554 37,000  Level FlightAware ADS-B
Sun 05:41:16 PM 42.5440 -89.0980 93° East 482 555 37,000  Level FlightAware ADS-B
Sun 05:41:48 PM 42.5410 -89.0040 92° East 482 555 37,000  Level FlightAware ADS-B
Sun 05:42:22 PM 42.5370 -88.8990 93° East 483 556 37,000  Level FlightAware ADS-B
Sun 05:42:57 PM 42.5330 -88.7930 93° East 483 556 37,000  Level FlightAware ADS-B
Sun 05:43:34 PM 42.5290 -88.6820 93° East 484 557 37,000 169 Level FlightAware ADS-B
Sun 05:44:08 PM 42.5250 -88.5780 93° East 486 559 37,200 592 Climbing FlightAware ADS-B
Sun 05:44:45 PM 42.5200 -88.4660 93° East 487 560 37,700 857 Climbing FlightAware ADS-B
Sun 05:45:18 PM 42.5160 -88.3650 93° East 488 562 38,200 957 Climbing FlightAware ADS-B
Sun 05:45:54 PM 42.5110 -88.2550 93° East 488 562 38,800 676 Climbing FlightAware ADS-B
Sun 05:46:29 PM 42.5070 -88.1490 93° East 486 559 39,000 171 Climbing FlightAware ADS-B
Sun 05:47:04 PM 42.5020 -88.0440 94° East 482 555 39,000  Level FlightAware ADS-B
Sun 05:47:37 PM 42.5000 -87.9450 92° East 481 554 39,000  Level FlightAware ADS-B
Sun 05:48:11 PM 42.5000 -87.8430 90° East 481 554 39,000  Level FlightAware ADS-B
Sun 05:48:46 PM 42.5000 -87.7380 90° East 482 555 39,000  Level FlightAware ADS-B
Sun 05:49:24 PM 42.4990 -87.6220 91° East 483 556 39,000  Level FlightAware ADS-B
Sun 05:50:01 PM 42.4990 -87.5150 90° East 483 556 39,000  Level FlightAware ADS-B
Sun 05:50:40 PM 42.4990 -87.3940 90° East 484 557 39,000  Level FlightAware ADS-B
Sun 05:51:18 PM 42.4980 -87.2850 91° East 484 557 39,000  Level FlightAware ADS-B
Sun 05:51:50 PM 42.4970 -87.1840 91° East 483 556 39,000  Level FlightAware ADS-B
Sun 05:52:27 PM 42.4970 -87.0750 90° East 483 556 39,000  Level FlightAware ADS-B
Sun 05:53:02 PM 42.4960 -86.9650 91° East 482 555 39,000  Level FlightAware ADS-B
Sun 05:53:39 PM 42.4950 -86.8540 91° East 481 554 39,000  Level FlightAware ADS-B
Sun 05:54:11 PM 42.4940 -86.7570 91° East 481 554 39,000  Level FlightAware ADS-B
Sun 05:54:48 PM 42.4920 -86.6470 91° East 481 554 39,000  Level FlightAware ADS-B
Sun 05:55:22 PM 42.4910 -86.5430 91° East 481 554 39,000  Level FlightAware ADS-B
Sun 05:55:55 PM 42.4900 -86.4480 91° East 482 555 39,000  Level FlightAware ADS-B
Sun 05:56:30 PM 42.4880 -86.3380 91° East 481 554 39,000  Level FlightAware ADS-B
Sun 05:57:07 PM 42.4870 -86.2320 91° East 480 552 39,000  Level FlightAware ADS-B
Sun 05:57:39 PM 42.4850 -86.1320 92° East 479 551 39,000  Level FlightAware ADS-B
Sun 05:58:16 PM 42.4840 -86.0230 91° East 477 549 39,000  Level FlightAware ADS-B
Sun 05:58:53 PM 42.4820 -85.9110 91° East 476 548 39,000  Level FlightAware ADS-B
Sun 05:59:27 PM 42.4800 -85.8150 92° East 475 547 39,000  Level FlightAware ADS-B
Sun 06:00:07 PM 42.4780 -85.6970 91° East 475 547 39,000  Level FlightAware ADS-B
Sun 06:00:42 PM 42.4750 -85.5890 92° East 476 548 39,000  Level FlightAware ADS-B
Sun 06:01:18 PM 42.4730 -85.4800 91° East 476 548 39,000  Level FlightAware ADS-B
Sun 06:01:53 PM 42.4710 -85.3760 91° East 477 549 39,000  Level FlightAware ADS-B
Sun 06:02:30 PM 42.4680 -85.2650 92° East 477 549 39,000  Level FlightAware ADS-B
Sun 06:03:04 PM 42.4660 -85.1650 92° East 478 550 39,000  Level FlightAware ADS-B
Sun 06:03:37 PM 42.4630 -85.0660 92° East 478 550 39,000  Level FlightAware ADS-B
Sun 06:04:11 PM 42.4610 -84.9700 92° East 478 550 39,000  Level FlightAware ADS-B
Sun 06:04:51 PM 42.4580 -84.8550 92° East 478 550 39,000  Level FlightAware ADS-B
Sun 06:05:23 PM 42.4550 -84.7560 92° East 478 550 39,000  Level FlightAware ADS-B
Sun 06:05:58 PM 42.4520 -84.6500 92° East 479 551 39,000  Level FlightAware ADS-B
Sun 06:06:33 PM 42.4490 -84.5480 92° East 479 551 39,000  Level FlightAware ADS-B
Sun 06:07:08 PM 42.4460 -84.4410 92° East 479 551 39,000  Level FlightAware ADS-B
Sun 06:07:42 PM 42.4430 -84.3380 92° East 479 551 39,000  Level FlightAware ADS-B
Sun 06:08:21 PM 42.4390 -84.2180 93° East 480 552 39,000  Level FlightAware ADS-B
Sun 06:08:53 PM 42.4360 -84.1260 92° East 481 554 39,000  Level FlightAware ADS-B
Sun 06:09:29 PM 42.4320 -84.0190 93° East 482 555 39,000  Level FlightAware ADS-B
Sun 06:10:03 PM 42.4280 -83.9160 93° East 483 556 39,000  Level FlightAware ADS-B
Sun 06:10:41 PM 42.4240 -83.8010 93° East 484 557 39,000  Level FlightAware ADS-B
Sun 06:10:57 PM 42.4220 -83.7520 93° East 485 558 39,000  Level FlightAware ADS-B
Sun 06:11:42 PM 42.4170 -83.6120 93° East 486 559 39,000  Level FlightAware ADS-B
Sun 06:12:19 PM 42.4130 -83.5050 93° East 486 559 39,000  Level FlightAware ADS-B
Sun 06:12:52 PM 42.4090 -83.4010 93° East 487 560 39,000  Level FlightAware ADS-B
Sun 06:13:30 PM 42.4040 -83.2860 93° East 487 560 39,000  Level FlightAware ADS-B
Sun 06:14:04 PM 42.4000 -83.1840 93° East 487 560 39,000  Level FlightAware ADS-B
Sun 06:14:40 PM 42.3950 -83.0740 93° East 489 563 39,000  Level FlightAware ADS-B
Sun 06:15:13 PM 42.3910 -82.9760 93° East 490 564 39,000  Level FlightAware ADS-B
Sun 06:15:51 PM 42.3860 -82.8580 93° East 491 565 39,000  Level FlightAware ADS-B
Sun 06:16:22 PM 42.3820 -82.7680 93° East 491 565 39,000  Level FlightAware ADS-B
Sun 06:17:01 PM 42.3770 -82.6440 93° East 491 565 39,000  Level FlightAware ADS-B
Sun 06:17:37 PM 42.3720 -82.5330 93° East 490 564 39,000  Level FlightAware ADS-B
Sun 06:18:09 PM 42.3690 -82.4340 92° East 490 564 39,000  Level FlightAware ADS-B
Sun 06:18:43 PM 42.3650 -82.3320 93° East 491 565 39,000  Level FlightAware ADS-B
Sun 06:19:17 PM 42.3600 -82.2300 94° East 491 565 39,000  Level FlightAware ADS-B
Sun 06:19:54 PM 42.3560 -82.1170 93° East 492 566 39,000  Level FlightAware ADS-B
Sun 06:20:31 PM 42.3500 -81.9980 94° East 493 567 39,000  Level FlightAware ADS-B
Sun 06:21:07 PM 42.3460 -81.8890 93° East 494 568 39,000  Level FlightAware ADS-B
Sun 06:21:39 PM 42.3410 -81.7900 94° East 494 568 39,000  Level FlightAware ADS-B
Sun 06:22:16 PM 42.3360 -81.6760 93° East 495 570 39,000  Level FlightAware ADS-B
Sun 06:22:48 PM 42.3310 -81.5790 94° East 496 571 39,000  Level FlightAware ADS-B
Sun 06:23:25 PM 42.3260 -81.4630 93° East 496 571 39,000  Level FlightAware ADS-B
Sun 06:24:00 PM 42.3210 -81.3570 94° East 495 570 39,000  Level FlightAware ADS-B
Sun 06:24:37 PM 42.3150 -81.2440 94° East 495 570 39,000  Level FlightAware ADS-B
Sun 06:25:10 PM 42.3100 -81.1420 94° East 494 568 39,000  Level FlightAware ADS-B
Sun 06:25:46 PM 42.3040 -81.0310 94° East 493 567 39,000  Level FlightAware ADS-B
Sun 06:26:19 PM 42.2990 -80.9300 94° East 491 565 39,000  Level FlightAware ADS-B
Sun 06:26:54 PM 42.2930 -80.8240 94° East 490 564 39,000  Level FlightAware ADS-B
Sun 06:27:30 PM 42.2870 -80.7110 94° East 487 560 39,000  Level FlightAware ADS-B
Sun 06:28:06 PM 42.2810 -80.6030 94° East 486 559 39,000  Level FlightAware ADS-B
Sun 06:28:39 PM 42.2760 -80.5040 94° East 486 559 39,000  Level FlightAware ADS-B
Sun 06:29:14 PM 42.2700 -80.3980 94° East 485 558 39,000  Level FlightAware ADS-B
Sun 06:29:49 PM 42.2640 -80.2960 95° East 485 558 39,000  Level FlightAware ADS-B
Sun 06:30:23 PM 42.2570 -80.1910 95° East 485 558 39,000  Level FlightAware ADS-B
Sun 06:31:00 PM 42.2510 -80.0790 94° East 484 557 39,000  Level FlightAware ADS-B
Sun 06:31:35 PM 42.2440 -79.9760 95° East 484 557 39,000  Level FlightAware ADS-B
Sun 06:32:11 PM 42.2380 -79.8660 94° East 484 557 39,000  Level FlightAware ADS-B
Sun 06:32:44 PM 42.2310 -79.7660 95° East 484 557 39,000  Level FlightAware ADS-B
Sun 06:33:17 PM 42.2250 -79.6680 95° East 484 557 39,000  Level FlightAware ADS-B
Sun 06:33:55 PM 42.2180 -79.5560 95° East 482 555 39,000  Level FlightAware ADS-B
Sun 06:34:32 PM 42.2100 -79.4450 96° East 480 552 39,000  Level FlightAware ADS-B
Sun 06:35:03 PM 42.2040 -79.3540 95° East 477 549 39,000  Level FlightAware ADS-B
Sun 06:35:40 PM 42.1970 -79.2480 95° East 475 547 39,000  Level FlightAware ADS-B
Sun 06:36:15 PM 42.1880 -79.1410 96° East 474 545 39,000  Level FlightAware ADS-B
Sun 06:36:47 PM 42.1720 -79.0530 104° East 471 542 39,000  Level FlightAware ADS-B
Sun 06:37:24 PM 42.1480 -78.9570 109° East 469 540 39,000  Level FlightAware ADS-B
Sun 06:38:01 PM 42.1200 -78.8460 109° East 468 539 39,000  Level FlightAware ADS-B
Sun 06:38:35 PM 42.0960 -78.7530 109° East 467 537 39,000  Level FlightAware ADS-B
Sun 06:39:08 PM 42.0730 -78.6600 108° East 466 536 39,000  Level FlightAware ADS-B
Sun 06:39:44 PM 42.0480 -78.5610 109° East 465 535 39,000  Level FlightAware ADS-B
Sun 06:40:16 PM 42.0260 -78.4750 109° East 464 534 39,000  Level FlightAware ADS-B
Sun 06:40:57 PM 41.9980 -78.3670 109° East 465 535 39,000  Level FlightAware ADS-B
Sun 06:41:37 PM 41.9690 -78.2530 109° East 464 534 39,000  Level FlightAware ADS-B
Sun 06:42:14 PM 41.9440 -78.1550 109° East 464 534 39,000  Level FlightAware ADS-B
Sun 06:42:46 PM 41.9210 -78.0670 109° East 465 535 39,000  Level FlightAware ADS-B
Sun 06:43:23 PM 41.8950 -77.9680 109° East 466 536 39,000  Level FlightAware ADS-B
Sun 06:43:59 PM 41.8690 -77.8660 109° East 467 537 39,000  Level FlightAware ADS-B
Sun 06:44:30 PM 41.8470 -77.7840 110° East 468 539 39,000  Level FlightAware ADS-B
Sun 06:45:07 PM 41.8200 -77.6820 110° East 469 540 39,000  Level FlightAware ADS-B
Sun 06:45:43 PM 41.7950 -77.5860 109° East 470 541 39,000  Level FlightAware ADS-B
Sun 06:46:18 PM 41.7690 -77.4870 109° East 471 542 39,000  Level FlightAware ADS-B
Sun 06:46:48 PM 41.7470 -77.4060 110° East 472 543 39,000  Level FlightAware ADS-B
Sun 06:47:28 PM 41.7170 -77.2930 110° East 474 545 39,000  Level FlightAware ADS-B
Sun 06:48:04 PM 41.6910 -77.1950 110° East 476 548 39,000  Level FlightAware ADS-B
Sun 06:48:34 PM 41.6690 -77.1150 110° East 476 548 39,000  Level FlightAware ADS-B
Sun 06:49:12 PM 41.6400 -77.0070 110° East 475 547 39,000  Level FlightAware ADS-B
Sun 06:49:48 PM 41.6130 -76.9090 110° East 475 547 39,000  Level FlightAware ADS-B
Sun 06:50:20 PM 41.5890 -76.8210 110° East 473 544 39,000  Level FlightAware ADS-B
Sun 06:50:57 PM 41.5630 -76.7250 110° East 472 543 39,000  Level FlightAware ADS-B
Sun 06:51:34 PM 41.5330 -76.6170 110° East 472 543 39,000  Level FlightAware ADS-B
Sun 06:52:05 PM 41.5100 -76.5340 110° East 471 542 39,000  Level FlightAware ADS-B
Sun 06:52:41 PM 41.4830 -76.4350 110° East 470 541 39,000  Level FlightAware ADS-B
Sun 06:53:15 PM 41.4590 -76.3500 111° Southeast 469 540 39,000  Level FlightAware ADS-B
Sun 06:53:48 PM 41.4330 -76.2570 110° East 468 539 39,000 -750 Level FlightAware ADS-B
Sun 06:54:27 PM 41.4030 -76.1510 111° Southeast 467 537 38,100 -2,080 Descending FlightAware ADS-B
Sun 06:55:03 PM 41.3760 -76.0530 110° East 477 549 36,400 -2,873 Descending FlightAware ADS-B
Sun 06:55:38 PM 41.3490 -75.9580 111° Southeast 484 557 34,700 -3,091 Descending FlightAware ADS-B
Sun 06:56:09 PM 41.3240 -75.8680 110° East 489 563 33,000 -3,088 Descending FlightAware ADS-B
Sun 06:56:46 PM 41.2950 -75.7660 111° Southeast 491 565 31,200 -3,000 Descending FlightAware ADS-B
Sun 06:57:15 PM 41.2720 -75.6890 112° Southeast 490 564 29,700 -3,493 Descending FlightAware ADS-B
Sun 06:57:53 PM 41.2360 -75.5780 113° Southeast 489 563 27,300 -3,237 Descending FlightAware ADS-B
Sun 06:58:31 PM 41.2020 -75.4770 114° Southeast 477 549 25,600 -2,630 Descending FlightAware ADS-B
Sun 06:59:06 PM 41.1730 -75.3890 114° Southeast 464 534 24,100 -2,026 Descending FlightAware ADS-B
Sun 06:59:48 PM 41.1360 -75.2810 114° Southeast 457 526 23,000 -835 Descending FlightAware ADS-B
Sun 07:00:25 PM 41.1040 -75.1850 114° Southeast 451 519 23,000  Level FlightAware ADS-B
Sun 07:00:59 PM 41.0730 -75.0950 115° Southeast 456 525 23,000  Level FlightAware ADS-B
Sun 07:01:31 PM 41.0480 -75.0230 115° Southeast 451 519 23,000  Level FlightAware ADS-B
Sun 07:02:09 PM 41.0130 -74.9200 114° Southeast 449 517 23,000  Level FlightAware ADS-B
Sun 07:02:45 PM 40.9910 -74.8240 107° East 452 520 23,000  Level FlightAware ADS-B
Sun 07:03:17 PM 40.9810 -74.7360 99° East 452 520 23,000 -441 Level FlightAware ADS-B
Sun 07:03:53 PM 40.9710 -74.6400 98° East 449 517 22,500 -1,527 Descending FlightAware ADS-B
Sun 07:04:12 PM 40.9651 -74.5866 98° East 450 518 21,600 -2,087 Descending FlightAware ADS-B
Sun 07:05:02 PM 40.9510 -74.4560 98° East 420 483 20,100 -1,724 Descending FlightAware ADS-B
Sun 07:05:39 PM 40.9410 -74.3620 98° East 414 476 19,100 -917 Descending FlightAware ADS-B
Sun 07:06:14 PM 40.9310 -74.2780 99° East 376 433 19,000 -85 Descending FlightAware ADS-B
Sun 07:06:50 PM 40.9220 -74.2010 99° East 340 391 19,000  Level FlightAware ADS-B
Sun 07:07:27 PM 40.9090 -74.1270 103° East 335 386 19,000 -265 Level FlightAware ADS-B
Sun 07:07:58 PM 40.8850 -74.0720 120° Southeast 337 388 18,700 -982 Descending FlightAware ADS-B
Sun 07:08:22 PM 40.8641 -74.0302 123° Southeast 336 387 18,100 -1,525 Descending FlightAware ADS-B
Sun 07:08:57 PM 40.8349 -73.9721 124° Southeast 329 379 17,200 -1,714 Descending FlightAware ADS-B
Sun 07:09:46 PM 40.7960 -73.8930 123° Southeast 310 357 15,700 -2,000 Descending FlightAware ADS-B
Sun 07:10:18 PM 40.7700 -73.8440 125° Southeast 310 357 14,500 -2,182 Descending FlightAware ADS-B
Sun 07:10:30 PM 40.7574 -73.8268 134° Southeast 306 352 14,100 -2,348 Descending FlightAware ADS-B (KSNC)
Sun 07:11:27 PM 40.6988 -73.7556 137° Southeast 297 342 11,800 -2,387 Descending FlightAware ADS-B (KSNC)
Sun 07:12:03 PM 40.6630 -73.7130 138° Southeast 287 330 10,400 -2,333 Descending FlightAware ADS-B
Sun 07:12:21 PM 40.6430 -73.6950 146° Southeast 284 327 9,700 -2,333 Descending FlightAware ADS-B
Sun 07:12:39 PM 40.6210 -73.6870 165° South 282 325 9,000 -1,950 Descending FlightAware ADS-B
Sun 07:13:01 PM 40.5940 -73.6790 167° South 283 326 8,400 -1,429 Descending FlightAware ADS-B
Sun 07:13:21 PM 40.5700 -73.6720 168° South 279 321 8,000 -818 Descending FlightAware ADS-B
Sun 07:13:45 PM 40.5390 -73.6630 168° South 277 319 7,800 -273 Descending FlightAware ADS-B
Sun 07:14:05 PM 40.5130 -73.6560 168° South 277 319 7,800  Level FlightAware ADS-B
Sun 07:14:17 PM 40.4970 -73.6510 167° South 277 319 7,800  Level FlightAware ADS-B
Sun 07:14:35 PM 40.4750 -73.6450 168° South 279 321 7,800 -571 Level FlightAware ADS-B
Sun 07:14:59 PM 40.4470 -73.6530 192° South 274 315 7,400 -1,571 Descending FlightAware ADS-B
Sun 07:15:17 PM 40.4260 -73.6670 207° Southwest 273 314 6,700 -2,182 Descending FlightAware ADS-B
Sun 07:15:43 PM 40.4000 -73.6850 208° Southwest 270 311 5,800 -2,222 Descending FlightAware ADS-B
Sun 07:16:11 PM 40.3660 -73.7090 208° Southwest 266 306 4,700 -2,211 Descending FlightAware ADS-B
Sun 07:16:21 PM 40.3580 -73.7190 224° Southwest 264 304 4,400 -2,000 Descending FlightAware ADS-B
Sun 07:16:29 PM 40.3530 -73.7300 239° Southwest 260 299 4,100 -2,000 Descending FlightAware ADS-B
Sun 07:16:51 PM 40.3460 -73.7610 254° West 258 297 3,400 -1,463 Descending FlightAware ADS-B
Sun 07:17:10 PM 40.3410 -73.7860 255° West 251 289 3,100 -789 Descending FlightAware ADS-B
Sun 07:17:29 PM 40.3340 -73.8140 252° West 239 275 2,900 -462 Descending FlightAware ADS-B
Sun 07:17:49 PM 40.3240 -73.8430 246° West 230 265 2,800 -128 Descending FlightAware ADS-B
Sun 07:18:16 PM 40.3130 -73.8770 247° West 209 241 2,800  Level FlightAware ADS-B
Sun 07:18:31 PM 40.3070 -73.8940 245° Southwest 208 239 2,800  Level FlightAware ADS-B
Sun 07:18:53 PM 40.2980 -73.9200 246° West 209 241 2,800  Level FlightAware ADS-B
Sun 07:19:04 PM 40.2940 -73.9320 246° West 208 239 2,800  Level FlightAware ADS-B
Sun 07:19:11 PM 40.2930 -73.9410 262° West 205 236 2,800  Level FlightAware ADS-B
Sun 07:19:32 PM 40.3020 -73.9620 299° West 196 226 2,800  Level FlightAware ADS-B
Sun 07:19:47 PM 40.3140 -73.9700 333° Northwest 191 220 2,800  Level FlightAware ADS-B
Sun 07:20:02 PM 40.3260 -73.9740 346° North 187 215 2,800  Level FlightAware ADS-B
Sun 07:20:29 PM 40.3480 -73.9820 345° North 183 211 2,800  Level FlightAware ADS-B
Sun 07:20:49 PM 40.3640 -73.9880 344° North 184 212 2,800  Level FlightAware ADS-B
Sun 07:21:12 PM 40.3840 -73.9950 345° North 184 212 2,800  Level FlightAware ADS-B
Sun 07:21:31 PM 40.4000 -74.0010 344° North 184 212 2,800  Level FlightAware ADS-B
Sun 07:21:51 PM 40.4160 -74.0070 344° North 184 212 2,800  Level FlightAware ADS-B
Sun 07:22:08 PM 40.4300 -74.0100 351° North 182 209 2,800  Level FlightAware ADS-B
Sun 07:22:29 PM 40.4470 -74.0050 13° North 173 199 2,800  Level FlightAware ADS-B
Sun 07:22:49 PM 40.4630 -74.0000 13° North 177 204 2,800  Level FlightAware ADS-B
Sun 07:23:03 PM 40.4730 -73.9970 13° North 178 205 2,800  Level FlightAware ADS-B
Sun 07:23:29 PM 40.4930 -73.9870 21° North 177 204 2,800  Level FlightAware ADS-B
Sun 07:23:53 PM 40.5100 -73.9760 26° Northeast 177 204 2,800  Level FlightAware ADS-B
Sun 07:24:14 PM 40.5270 -73.9650 26° Northeast 178 205 2,800 -308 Level FlightAware ADS-B
Sun 07:24:32 PM 40.5390 -73.9550 32° Northeast 177 204 2,600 -615 Descending FlightAware ADS-B
Sun 07:24:53 PM 40.5550 -73.9420 32° Northeast 169 194 2,400 -667 Descending FlightAware ADS-B
Sun 07:25:17 PM 40.5690 -73.9300 33° Northeast 177 204 2,100 -857 Descending FlightAware ADS-B
Sun 07:25:35 PM 40.5830 -73.9180 33° Northeast 178 205 1,800 -720 Descending FlightAware ADS-B
Sun 07:26:07 PM 40.6040 -73.9010 32° Northeast 179 206 1,500 -692 Descending FlightAware ADS-B
Sun 07:26:27 PM 40.6190 -73.8890 31° Northeast 168 193 1,200 -750 Descending FlightAware ADS-B
Sun 07:26:47 PM 40.6320 -73.8800 28° Northeast 145 167 1,000 -667 Descending FlightAware ADS-B
Sun 07:27:03 PM 40.6410 -73.8730 31° Northeast 140 161 800 -667 Descending FlightAware ADS-B
Sun 07:27:23 PM 40.6520 -73.8640 32° Northeast 138 159 600 -643 Descending FlightAware ADS-B
Sun 07:27:31 PM 40.6560 -73.8600 37° Northeast 133 153 500 -300 Descending FlightAware ADS-B
Sun 07:27:43 PM 40.6620 -73.8540 37° Northeast 137 158 500  Level FlightAware ADS-B
Sun 07:27:51 PM 40.6650 -73.8480 57° Northeast 136 157 500  Level FlightAware ADS-B
Sun 07:28:21 PM 40.6710 -73.8270 69° East 135 155 500 -250 Level FlightAware ADS-B
Sun 07:28:39 PM 40.6670 -73.8120 109° East 133 153 300 -692 Descending FlightAware ADS-B
Sun 07:28:47 PM 40.6650 -73.8050 111° Southeast 132 152 200 -750 Descending FlightAware ADS-B
Sun 07:29:07 PM 40.6590 -73.7920 121° Southeast 130 150 -600 Descending FlightAware ADS-B
Sun 07:29:27 PM 40.6530 -73.7790 121° Southeast 120 138  Level FlightAware ADS-B

Login

Don't have an account? Register now (free) for customized features, flight alerts, and more!